Stations météo

réclame
Mon MeteoGroup
Lentran, Grande-Bretagne (99125): Température de l'air & dewpoint: 15.06.2018 11:00:00 - 21.06.2018 11:00:00 (BST)Lentran, Grande-Bretagne (99125): Quantités de précipitations: 15.06.2018 11:00:00 - 21.06.2018 11:00:00 (BST)
Date & Time tt [°C] td [°C] rr [mm]
21.06.2018 11:00:00 11,1 6,5 0,0
21.06.2018 10:00:00 11,0 7,0 0,2
21.06.2018 09:00:00 10,6 5,1 0,0
21.06.2018 08:00:00 8,4 6,3 0,0
21.06.2018 07:00:00 8,2 5,8 0,0
21.06.2018 06:00:00 7,2 5,3 0,0
21.06.2018 05:00:00 6,5 4,8 0,0
21.06.2018 04:00:00 6,5 5,2 0,2
21.06.2018 03:00:00 6,4 5,2 0,0
21.06.2018 02:00:00 6,0 5,0 0,2
21.06.2018 01:00:00 6,0 4,8 0,0
21.06.2018 00:00:00 5,5 4,4 0,0
20.06.2018 23:00:00 5,3 4,6 0,2
20.06.2018 22:00:00 5,6 4,6 2,8
20.06.2018 21:00:00 8,6 5,1 0,0
20.06.2018 20:00:00 10,3 5,2 0,0
20.06.2018 19:00:00 11,0 5,3 0,0
20.06.2018 18:00:00 12,2 5,6 0,0
20.06.2018 17:00:00 11,5 5,5 0,0
20.06.2018 16:00:00 12,6 5,7 0,0
20.06.2018 15:00:00 12,8 8,0 0,2
20.06.2018 14:00:00 13,8 6,6 0,0
20.06.2018 13:00:00 12,4 8,4 0,0
20.06.2018 12:00:00 10,1 6,9 0,2
20.06.2018 11:00:00 11,4 7,5 0,0
20.06.2018 10:00:00 9,9 7,3 0,0
20.06.2018 09:00:00 9,3 8,1 0,0
20.06.2018 08:00:00 8,6 8,3 0,2
20.06.2018 07:00:00 7,8 7,8 1,2
20.06.2018 06:00:00 7,6 7,6 2,6
20.06.2018 05:00:00 7,6 7,5 2,8
20.06.2018 04:00:00 8,1 8,0 1,4
20.06.2018 03:00:00 7,8 7,5 0,4
20.06.2018 02:00:00 7,7 7,6 0,0
20.06.2018 01:00:00 7,6 7,5 0,2
20.06.2018 00:00:00 7,8 7,5 0,2
19.06.2018 23:00:00 8,1 7,5 0,2
19.06.2018 22:00:00 8,7 7,8 0,2
19.06.2018 21:00:00 9,5 8,5 0,8
19.06.2018 20:00:00 11,5 6,3 0,2
19.06.2018 19:00:00 13,0 4,2 0,0
19.06.2018 18:00:00 13,7 4,9 0,0
19.06.2018 17:00:00 14,5 5,0 0,0
19.06.2018 16:00:00 14,5 5,5 0,0
19.06.2018 15:00:00 13,3 6,2 0,0
19.06.2018 14:00:00 14,5 6,3 0,0
19.06.2018 13:00:00 14,1 4,6 0,0
19.06.2018 12:00:00 13,0 5,3 0,0
19.06.2018 11:00:00 13,0 5,5 0,0
19.06.2018 10:00:00 13,1 4,7 0,0
19.06.2018 09:00:00 11,5 5,4 0,0
19.06.2018 08:00:00 10,9 5,2 0,0
19.06.2018 07:00:00 9,4 5,7 0,0
19.06.2018 06:00:00 8,1 3,9 0,0
19.06.2018 05:00:00 8,0 4,2 0,0
19.06.2018 04:00:00 8,3 4,5 0,0
19.06.2018 03:00:00 8,5 4,8 0,0
19.06.2018 02:00:00 8,4 4,8 0,0
19.06.2018 01:00:00 8,3 5,2 0,0
19.06.2018 00:00:00 8,3 4,0 0,0
18.06.2018 23:00:00 8,3 4,4 0,0
18.06.2018 22:00:00 9,2 4,0 0,0
18.06.2018 21:00:00 11,3 3,2 0,0
18.06.2018 20:00:00 12,4 3,8 0,0
18.06.2018 19:00:00 14,4 4,9 0,0
18.06.2018 18:00:00 13,2 5,9 0,0
18.06.2018 17:00:00 13,3 6,5 0,0
18.06.2018 16:00:00 13,8 5,7 0,0
18.06.2018 15:00:00 13,9 5,9 0,0
18.06.2018 14:00:00 13,5 6,5 0,0
18.06.2018 13:00:00 14,2 7,3 0,0
18.06.2018 12:00:00 14,3 5,2 0,0
18.06.2018 11:00:00 13,1 7,1 0,0
18.06.2018 10:00:00 12,6 6,7 0,0
18.06.2018 09:00:00 12,3 6,3 0,0
18.06.2018 08:00:00 11,2 6,1 0,0
18.06.2018 07:00:00 10,6 5,7 0,0
18.06.2018 06:00:00 10,2 6,1 0,0
18.06.2018 05:00:00 9,9 6,8 0,0
18.06.2018 04:00:00 10,4 6,3 0,0
18.06.2018 03:00:00 10,6 7,5 0,0
18.06.2018 02:00:00 11,7 8,7 0,0
18.06.2018 01:00:00 12,3 9,6 0,0
18.06.2018 00:00:00 12,7 10,4 0,0
17.06.2018 23:00:00 12,6 10,9 0,0
17.06.2018 22:00:00 12,6 10,6 0,0
17.06.2018 21:00:00 12,7 10,5 0,0
17.06.2018 20:00:00 12,4 10,6 0,0
17.06.2018 19:00:00 12,8 10,2 0,2
17.06.2018 18:00:00 13,4 10,1 0,2
17.06.2018 17:00:00 15,1 8,6 0,0
17.06.2018 16:00:00 16,3 8,3 0,0
17.06.2018 15:00:00 16,2 9,5 0,0
17.06.2018 14:00:00 15,1 9,6 0,0
17.06.2018 13:00:00 14,7 9,7 0,0
17.06.2018 12:00:00 14,9 9,6 0,0
17.06.2018 11:00:00 14,3 9,0 0,0
17.06.2018 10:00:00 13,8 8,6 0,0
17.06.2018 09:00:00 12,4 8,0 0,0
17.06.2018 08:00:00 11,6 7,6 0,0
17.06.2018 07:00:00 10,2 7,6 0,0
17.06.2018 06:00:00 7,8 6,7 0,0
17.06.2018 05:00:00 6,9 6,0 0,0
17.06.2018 04:00:00 7,3 6,2 0,0
17.06.2018 03:00:00 8,0 6,5 0,0
17.06.2018 02:00:00 9,5 7,5 0,0
17.06.2018 01:00:00 9,8 8,0 0,0
17.06.2018 00:00:00 9,3 7,9 0,0
16.06.2018 23:00:00 9,6 7,4 0,0
16.06.2018 22:00:00 10,6 8,5 0,0
16.06.2018 21:00:00 11,8 9,6 0,0
16.06.2018 20:00:00 14,4 10,0 0,0
16.06.2018 19:00:00 13,4 9,2 0,0
16.06.2018 18:00:00 11,4 9,2 0,2
16.06.2018 17:00:00 10,6 9,0 1,2
16.06.2018 16:00:00 12,3 10,8 0,2
16.06.2018 15:00:00 13,2 10,1 0,0
16.06.2018 14:00:00 12,6 11,9 0,6
16.06.2018 13:00:00 11,9 11,4 1,2
16.06.2018 12:00:00 11,8 10,9 2,6
16.06.2018 11:00:00 12,1 10,8 1,2
16.06.2018 10:00:00 12,1 10,1 0,2
16.06.2018 09:00:00 12,3 8,0 0,0
16.06.2018 08:00:00 12,1 8,0 0,0
16.06.2018 07:00:00 10,3 8,7 0,0
16.06.2018 06:00:00 8,4 7,3 0,0
16.06.2018 05:00:00 7,6 6,1 0,0
16.06.2018 04:00:00 8,8 6,7 0,0
16.06.2018 03:00:00 8,5 6,3 0,0
16.06.2018 02:00:00 9,0 6,3 0,0
16.06.2018 01:00:00 9,1 6,4 0,0
16.06.2018 00:00:00 9,6 6,3 0,0
15.06.2018 23:00:00 9,7 6,0 0,0
15.06.2018 22:00:00 10,6 6,6 0,0
15.06.2018 21:00:00 11,9 7,4 0,0
15.06.2018 20:00:00 12,4 7,1 0,2
15.06.2018 19:00:00 15,9 6,8 0,0
15.06.2018 18:00:00 14,0 7,2 0,0
15.06.2018 17:00:00 14,1 7,2 0,0
15.06.2018 16:00:00 14,7 6,8 0,0
15.06.2018 15:00:00 14,5 7,5 0,0
15.06.2018 14:00:00 14,9 7,8 0,0
15.06.2018 13:00:00 15,1 7,0 0,0
15.06.2018 12:00:00 13,8 6,1 0,0
15.06.2018 11:00:00 12,8 6,4 0,0

tt = Température de l'air
td = dewpoint
rr = Quantités de précipitations

stations d'obs. à proximité